createdAt,value
2023-05-19T00:00:15.495Z,102521.31
2023-05-19T00:02:45.603Z,102516.53
2023-05-19T00:05:18.641Z,102525.34
2023-05-19T00:07:48.987Z,102525.97
2023-05-19T00:10:20.848Z,102513.84
2023-05-19T00:12:50.932Z,102514.03
2023-05-19T00:15:22.756Z,102516.59
2023-05-19T00:17:52.398Z,102509.91
2023-05-19T00:20:20.815Z,102511.66
2023-05-19T00:22:49.127Z,102506.41
2023-05-19T00:25:18.827Z,102518.38
2023-05-19T00:27:47.178Z,102515.03
2023-05-19T00:30:16.415Z,102510.22
2023-05-19T00:32:44.765Z,102510.56
2023-05-19T00:35:13.493Z,102517.75
2023-05-19T00:37:41.854Z,102511.38
2023-05-19T00:40:12.162Z,102506.91
2023-05-19T00:42:42.813Z,102517.75
2023-05-19T00:45:11.744Z,102510.25
2023-05-19T00:47:40.505Z,102510.09
2023-05-19T00:50:09.749Z,102511.56
2023-05-19T00:52:38.063Z,102504.03
2023-05-19T00:55:09.072Z,102505.78
2023-05-19T00:57:37.791Z,102504.03
2023-05-19T01:00:09.818Z,102501.63
2023-05-19T01:02:40.040Z,102500.06
2023-05-19T01:05:09.949Z,102488.25
2023-05-19T01:07:39.344Z,102493.16
2023-05-19T01:10:08.671Z,102495.44
2023-05-19T01:12:37.372Z,102489.03
2023-05-19T01:15:09.983Z,102485.66
2023-05-19T01:17:49.499Z,102495.25
2023-05-19T01:20:25.923Z,102493.81
2023-05-19T01:23:20.359Z,102491.09
2023-05-19T01:26:25.972Z,102506.56
2023-05-19T01:29:38.031Z,102501.59
2023-05-19T01:32:09.149Z,102499.84
2023-05-19T01:34:44.747Z,102506.69
2023-05-19T01:37:16.396Z,102507.34
2023-05-19T01:39:46.378Z,102503.16
2023-05-19T01:42:16.732Z,102507.31
2023-05-19T01:44:45.632Z,102511.75
2023-05-19T01:47:15.952Z,102511.59
2023-05-19T01:49:44.427Z,102509.00
2023-05-19T01:52:12.786Z,102512.38
2023-05-19T01:54:41.110Z,102512.97
2023-05-19T01:57:26.164Z,102512.00
2023-05-19T02:00:07.807Z,102509.44
2023-05-19T02:02:56.700Z,102505.78
2023-05-19T02:05:32.904Z,102494.59
2023-05-19T02:08:09.716Z,102507.13
2023-05-19T02:10:43.533Z,102501.59
2023-05-19T02:13:15.144Z,102499.31
2023-05-19T02:15:45.628Z,102508.22
2023-05-19T02:18:19.271Z,102504.22
2023-05-19T02:20:48.598Z,102501.66
2023-05-19T02:23:16.998Z,102498.47
2023-05-19T02:25:45.281Z,102493.66
2023-05-19T02:28:13.623Z,102487.28
2023-05-19T02:30:41.826Z,102485.19
2023-05-19T02:33:11.509Z,102484.69
2023-05-19T02:35:41.194Z,102486.91
2023-05-19T02:38:10.027Z,102485.94
2023-05-19T02:40:38.247Z,102482.72
2023-05-19T02:43:06.872Z,102473.63
2023-05-19T02:45:35.139Z,102479.69
2023-05-19T02:48:03.522Z,102482.50
2023-05-19T02:50:32.071Z,102477.91
2023-05-19T02:53:02.580Z,102482.81
2023-05-19T02:55:30.854Z,102488.81
2023-05-19T02:57:59.145Z,102491.84
2023-05-19T03:00:27.459Z,102489.78
2023-05-19T03:02:55.826Z,102491.16
2023-05-19T03:05:24.189Z,102485.25
2023-05-19T03:07:52.395Z,102485.09
2023-05-19T03:10:22.047Z,102489.22
2023-05-19T03:12:50.994Z,102489.50
2023-05-19T03:15:20.913Z,102491.69
2023-05-19T03:17:49.212Z,102486.94
2023-05-19T03:20:17.962Z,102483.75
2023-05-19T03:22:46.190Z,102474.63
2023-05-19T03:25:14.567Z,102478.47
2023-05-19T03:27:44.494Z,102476.94
2023-05-19T03:30:14.629Z,102477.44
2023-05-19T03:32:43.052Z,102487.78
2023-05-19T03:35:11.669Z,102480.88
2023-05-19T03:37:39.981Z,102484.56
2023-05-19T03:40:10.620Z,102487.88
2023-05-19T03:42:38.966Z,102487.41
2023-05-19T03:45:10.109Z,102493.09
2023-05-19T03:47:38.248Z,102491.81
2023-05-19T03:50:08.096Z,102494.03
2023-05-19T03:52:36.425Z,102487.03
2023-05-19T03:55:04.940Z,102495.13
2023-05-19T03:57:33.666Z,102496.50
2023-05-19T04:00:02.065Z,102497.16
2023-05-19T04:02:31.833Z,102492.03
2023-05-19T04:05:00.125Z,102490.44
2023-05-19T04:07:28.369Z,102501.25
2023-05-19T04:09:56.604Z,102501.25
2023-05-19T04:12:25.172Z,102502.84
2023-05-19T04:14:53.547Z,102508.25
2023-05-19T04:17:23.714Z,102513.66
2023-05-19T04:19:53.354Z,102511.25
2023-05-19T04:22:21.841Z,102509.88
2023-05-19T04:24:50.683Z,102512.25
2023-05-19T04:27:19.087Z,102513.03
2023-05-19T04:29:48.476Z,102513.84
2023-05-19T04:32:18.541Z,102515.13
2023-05-19T04:34:46.882Z,102513.53
2023-05-19T04:37:17.374Z,102511.06
2023-05-19T04:39:46.524Z,102510.41
2023-05-19T04:42:14.834Z,102506.59
2023-05-19T04:44:43.490Z,102505.22
2023-05-19T04:47:12.152Z,102511.91
2023-05-19T04:49:40.528Z,102505.59
2023-05-19T04:52:11.027Z,102505.81
2023-05-19T04:54:41.920Z,102502.47
2023-05-19T04:57:10.501Z,102499.66
2023-05-19T04:59:38.993Z,102491.25
2023-05-19T05:02:07.892Z,102505.44
2023-05-19T05:04:36.655Z,102504.50
2023-05-19T05:07:04.978Z,102507.91
2023-05-19T05:09:33.363Z,102505.84
2023-05-19T05:12:04.778Z,102506.53
2023-05-19T05:14:33.930Z,102501.81
2023-05-19T05:17:03.260Z,102502.97
2023-05-19T05:19:32.271Z,102506.34
2023-05-19T05:22:01.365Z,102502.06
2023-05-19T05:24:30.475Z,102502.72
2023-05-19T05:26:59.578Z,102511.22
2023-05-19T05:29:29.253Z,102504.56
2023-05-19T05:31:57.900Z,102508.72
2023-05-19T05:34:26.655Z,102497.75
2023-05-19T05:36:55.174Z,102492.72
2023-05-19T05:39:23.443Z,102488.47
2023-05-19T05:41:52.231Z,102482.69
2023-05-19T05:44:20.533Z,102483.72
2023-05-19T05:46:51.573Z,102481.13
2023-05-19T05:49:20.736Z,102484.38
2023-05-19T05:52:04.402Z,102473.84
2023-05-19T05:54:34.586Z,102475.50
2023-05-19T05:57:04.332Z,102471.97
2023-05-19T05:59:33.938Z,102478.69
2023-05-19T06:02:03.923Z,102483.78
2023-05-19T06:04:32.293Z,102485.84
2023-05-19T06:07:01.800Z,102483.13
2023-05-19T06:09:30.922Z,102493.31
2023-05-19T06:12:00.617Z,102496.03
2023-05-19T06:14:29.002Z,102497.47
2023-05-19T06:16:57.436Z,102500.94
2023-05-19T06:19:27.172Z,102503.63
2023-05-19T06:21:55.526Z,102503.94
2023-05-19T06:24:23.931Z,102497.25
2023-05-19T06:26:52.264Z,102498.94
2023-05-19T06:29:20.663Z,102496.06
2023-05-19T06:31:49.119Z,102500.03
2023-05-19T06:34:17.893Z,102497.94
2023-05-19T06:36:47.747Z,102498.88
2023-05-19T06:39:16.330Z,102505.72
2023-05-19T06:41:44.594Z,102510.31
2023-05-19T06:44:14.557Z,102496.72
2023-05-19T06:46:44.388Z,102499.22
2023-05-19T06:49:12.854Z,102490.88
2023-05-19T06:51:41.404Z,102493.56
2023-05-19T06:54:13.023Z,102495.44
2023-05-19T06:56:41.365Z,102497.72
2023-05-19T06:59:09.660Z,102496.19
2023-05-19T07:01:38.044Z,102494.72
2023-05-19T07:04:06.780Z,102492.38
2023-05-19T07:06:35.404Z,102481.84
2023-05-19T07:09:05.479Z,102485.31
2023-05-19T07:11:35.486Z,102500.09
2023-05-19T07:14:03.869Z,102493.56
2023-05-19T07:16:32.256Z,102487.66
2023-05-19T07:19:00.669Z,102495.50
2023-05-19T07:21:29.011Z,102486.56
2023-05-19T07:23:57.291Z,102492.44
2023-05-19T07:26:26.416Z,102499.97
2023-05-19T07:28:56.795Z,102489.72
2023-05-19T07:31:25.237Z,102489.72
2023-05-19T07:33:54.618Z,102493.78
2023-05-19T07:36:23.548Z,102490.25
2023-05-19T07:38:59.279Z,102485.91
2023-05-19T07:41:27.661Z,102487.03
2023-05-19T07:43:57.404Z,102488.09
2023-05-19T07:46:26.006Z,102499.31
2023-05-19T07:48:54.527Z,102497.22
2023-05-19T07:51:22.864Z,102477.19
2023-05-19T07:53:51.455Z,102479.88
2023-05-19T07:56:20.044Z,102478.53
2023-05-19T07:58:48.460Z,102482.59
2023-05-19T08:01:18.250Z,102480.94
2023-05-19T08:03:46.598Z,102487.78
2023-05-19T08:06:14.948Z,102475.91
2023-05-19T08:08:46.369Z,102480.41
2023-05-19T08:11:14.671Z,102475.88
2023-05-19T08:13:43.016Z,102475.72
2023-05-19T08:16:11.264Z,102477.88
2023-05-19T08:18:40.860Z,102482.81
2023-05-19T08:21:09.334Z,102478.28
2023-05-19T08:23:38.764Z,102483.97
2023-05-19T08:26:07.130Z,102477.94
2023-05-19T08:28:35.734Z,102478.53
2023-05-19T08:31:03.981Z,102470.47
2023-05-19T08:33:32.337Z,102463.59
2023-05-19T08:36:02.138Z,102472.44
2023-05-19T08:38:31.105Z,102456.94
2023-05-19T08:40:59.425Z,102457.09
2023-05-19T08:43:27.884Z,102452.91
2023-05-19T08:45:56.708Z,102449.50
2023-05-19T08:48:25.075Z,102440.63
2023-05-19T08:51:05.936Z,102439.19
2023-05-19T08:53:43.966Z,102438.94
2023-05-19T08:56:16.111Z,102438.28
2023-05-19T08:58:45.972Z,102435.25
2023-05-19T09:01:16.905Z,102429.09
2023-05-19T09:03:46.282Z,102426.88
2023-05-19T09:06:22.398Z,102427.00
2023-05-19T09:08:50.875Z,102424.75
2023-05-19T09:11:26.615Z,102418.97
2023-05-19T09:13:55.263Z,102410.78
2023-05-19T09:16:23.771Z,102429.72
2023-05-19T09:19:01.015Z,102413.34
2023-05-19T09:21:32.037Z,102415.00
2023-05-19T09:24:05.654Z,102407.69
2023-05-19T09:26:39.720Z,102415.16
2023-05-19T09:29:14.675Z,102403.31
2023-05-19T09:31:51.289Z,102412.66
2023-05-19T09:34:20.058Z,102402.59
2023-05-19T09:36:51.976Z,102398.44
2023-05-19T09:39:22.353Z,102400.16
2023-05-19T09:41:53.601Z,102401.81
2023-05-19T09:44:29.040Z,102395.22
2023-05-19T09:46:58.289Z,102404.75
2023-05-19T09:49:29.743Z,102402.50
2023-05-19T09:52:01.484Z,102400.94
2023-05-19T09:54:32.433Z,102393.53
2023-05-19T09:57:03.608Z,102382.22
2023-05-19T09:59:33.859Z,102378.72
2023-05-19T10:02:03.381Z,102378.38
2023-05-19T10:04:32.770Z,102377.66
2023-05-19T10:07:05.763Z,102381.22
2023-05-19T10:09:35.542Z,102386.38
2023-05-19T10:12:05.076Z,102380.50
2023-05-19T10:14:33.422Z,102393.13
2023-05-19T10:17:01.879Z,102382.56
2023-05-19T10:19:30.695Z,102388.09
2023-05-19T10:21:59.105Z,102391.25
2023-05-19T10:24:28.848Z,102385.38
2023-05-19T10:27:02.601Z,102388.19
2023-05-19T10:29:34.673Z,102384.25
2023-05-19T10:32:09.871Z,102381.88
2023-05-19T10:35:13.980Z,102379.94
2023-05-19T10:37:47.856Z,102376.03
2023-05-19T10:40:28.660Z,102372.53
2023-05-19T10:43:16.978Z,102368.59
2023-05-19T10:45:50.282Z,102367.03
2023-05-19T10:48:20.776Z,102363.13
2023-05-19T10:50:49.754Z,102361.13
2023-05-19T10:53:21.016Z,102371.75
2023-05-19T10:55:53.817Z,102367.81
2023-05-19T10:58:50.891Z,102354.88
2023-05-19T11:01:20.839Z,102358.00
2023-05-19T11:03:52.311Z,102365.06
2023-05-19T11:06:28.395Z,102353.13
2023-05-19T11:09:00.943Z,102349.72
2023-05-19T11:11:48.257Z,102363.22
2023-05-19T11:14:19.260Z,102364.50
2023-05-19T11:16:52.574Z,102366.72
2023-05-19T11:19:26.990Z,102364.28
2023-05-19T11:21:56.263Z,102362.50
2023-05-19T11:24:38.357Z,102361.44
2023-05-19T11:27:26.948Z,102357.94
2023-05-19T11:29:57.145Z,102355.06
2023-05-19T11:32:29.773Z,102357.16
2023-05-19T11:34:58.890Z,102353.34
2023-05-19T11:37:28.739Z,102355.56
2023-05-19T11:39:57.149Z,102350.25
2023-05-19T11:42:26.829Z,102342.53
2023-05-19T11:44:58.263Z,102339.13
2023-05-19T11:47:27.446Z,102338.47
2023-05-19T11:49:57.245Z,102341.41
2023-05-19T11:52:27.485Z,102348.22
2023-05-19T11:54:56.880Z,102331.81
2023-05-19T11:57:26.563Z,102331.91
2023-05-19T11:59:56.786Z,102323.31
2023-05-19T12:02:27.405Z,102316.28
2023-05-19T12:04:55.812Z,102314.75
2023-05-19T12:07:26.153Z,102314.38
2023-05-19T12:09:56.449Z,102316.41
2023-05-19T12:12:26.548Z,102313.28
2023-05-19T12:14:54.908Z,102307.81
2023-05-19T12:17:24.444Z,102301.91
2023-05-19T12:19:52.937Z,102302.28
2023-05-19T12:22:23.531Z,102304.69
2023-05-19T12:24:52.753Z,102303.94
2023-05-19T12:27:24.533Z,102297.59
2023-05-19T12:29:56.069Z,102293.69
2023-05-19T12:32:26.459Z,102296.06
2023-05-19T12:34:57.154Z,102304.72
2023-05-19T12:37:30.118Z,102294.50
2023-05-19T12:39:59.176Z,102288.19
2023-05-19T12:42:31.332Z,102288.22
2023-05-19T12:45:03.615Z,102290.56
2023-05-19T12:47:34.867Z,102281.13
2023-05-19T12:50:04.834Z,102284.66
2023-05-19T12:52:42.402Z,102277.94
2023-05-19T12:55:12.403Z,102285.06
2023-05-19T12:57:43.034Z,102284.25
2023-05-19T13:00:17.564Z,102273.66
2023-05-19T13:03:01.753Z,102280.75
2023-05-19T13:05:33.637Z,102275.66
2023-05-19T13:08:03.936Z,102273.25
2023-05-19T13:10:33.335Z,102278.00
2023-05-19T13:13:02.415Z,102270.91
2023-05-19T13:15:36.400Z,102271.69
2023-05-19T13:18:08.645Z,102276.41
2023-05-19T13:20:37.897Z,102276.44
2023-05-19T13:23:06.859Z,102267.81
2023-05-19T13:25:35.816Z,102275.31
2023-05-19T13:28:05.386Z,102258.78
2023-05-19T13:30:37.920Z,102262.31
2023-05-19T13:33:07.036Z,102255.22
2023-05-19T13:35:38.301Z,102260.75
2023-05-19T13:38:08.202Z,102251.28
2023-05-19T13:40:39.531Z,102252.03
2023-05-19T13:43:08.832Z,102240.63
2023-05-19T13:45:39.209Z,102234.75
2023-05-19T13:48:08.537Z,102234.75
2023-05-19T13:50:37.014Z,102232.38
2023-05-19T13:53:05.565Z,102225.31
2023-05-19T13:55:34.069Z,102237.50
2023-05-19T13:58:03.428Z,102238.69
2023-05-19T14:00:32.756Z,102239.09
2023-05-19T14:03:02.768Z,102242.28
2023-05-19T14:05:31.351Z,102231.66
2023-05-19T14:08:03.609Z,102228.06
2023-05-19T14:10:32.121Z,102219.84
2023-05-19T14:15:34.417Z,102237.94
2023-05-19T14:18:05.042Z,102238.34
2023-05-19T14:20:35.688Z,102230.88
2023-05-19T14:23:04.395Z,102230.47
2023-05-19T14:25:32.699Z,102213.94
2023-05-19T14:28:01.220Z,102221.81
2023-05-19T14:30:30.040Z,102237.97
2023-05-19T14:32:58.581Z,102218.69
2023-05-19T14:35:28.833Z,102236.00
2023-05-19T14:37:57.054Z,102232.88
2023-05-19T14:40:25.388Z,102219.50
2023-05-19T14:42:53.703Z,102219.91
2023-05-19T14:45:22.088Z,102222.66
2023-05-19T14:47:50.451Z,102208.47
2023-05-19T14:50:18.724Z,102207.72
2023-05-19T14:52:48.368Z,102217.59
2023-05-19T14:55:16.773Z,102213.25
2023-05-19T14:57:44.990Z,102210.50
2023-05-19T15:00:14.932Z,102196.31
2023-05-19T15:02:43.380Z,102192.75
2023-05-19T15:05:12.399Z,102202.63
2023-05-19T15:07:41.924Z,102201.06
2023-05-19T15:10:12.138Z,102200.28
2023-05-19T15:12:40.501Z,102192.00
2023-05-19T15:15:10.593Z,102191.66
2023-05-19T15:17:39.056Z,102190.88
2023-05-19T15:20:08.952Z,102189.28
2023-05-19T15:22:37.803Z,102182.59
2023-05-19T15:25:11.619Z,102188.13
2023-05-19T15:27:39.990Z,102181.47
2023-05-19T15:30:11.909Z,102184.59
2023-05-19T15:32:40.295Z,102179.88
2023-05-19T15:35:09.964Z,102183.81
2023-05-19T15:37:38.361Z,102175.53
2023-05-19T15:40:11.596Z,102171.25
2023-05-19T15:42:39.886Z,102179.50
2023-05-19T15:45:10.533Z,102175.56
2023-05-19T15:47:38.859Z,102181.47
2023-05-19T15:50:08.918Z,102169.66
2023-05-19T15:52:37.223Z,102174.00
2023-05-19T15:55:08.653Z,102166.16
2023-05-19T15:57:38.350Z,102174.03
2023-05-19T16:00:08.620Z,102173.22
2023-05-19T16:02:37.377Z,102176.38
2023-05-19T16:05:06.496Z,102162.97
2023-05-19T16:07:34.813Z,102164.56
2023-05-19T16:10:03.054Z,102161.81
2023-05-19T16:12:31.604Z,102162.22
2023-05-19T16:15:08.866Z,102153.56
2023-05-19T16:17:37.228Z,102145.34
2023-05-19T16:20:07.108Z,102161.03
2023-05-19T16:22:35.442Z,102158.28
2023-05-19T16:25:03.780Z,102152.38
2023-05-19T16:27:32.134Z,102146.09
2023-05-19T16:30:02.612Z,102152.75
2023-05-19T16:32:31.001Z,102146.91
2023-05-19T16:34:59.324Z,102143.72
2023-05-19T16:37:27.843Z,102138.25
2023-05-19T16:39:56.196Z,102132.34
2023-05-19T16:42:24.664Z,102131.56
2023-05-19T16:44:53.012Z,102139.41
2023-05-19T16:47:22.744Z,102129.56
2023-05-19T16:49:51.275Z,102139.03
2023-05-19T16:52:20.111Z,102141.38
2023-05-19T16:54:48.493Z,102132.69
2023-05-19T16:57:16.832Z,102142.16
2023-05-19T16:59:45.165Z,102145.69
2023-05-19T17:02:13.593Z,102125.63
2023-05-19T17:04:43.302Z,102126.44
2023-05-19T17:07:16.171Z,102132.72
2023-05-19T17:09:44.684Z,102135.44
2023-05-19T17:12:13.394Z,102140.53
2023-05-19T17:14:42.939Z,102129.13
2023-05-19T17:17:11.471Z,102129.56
2023-05-19T17:19:39.921Z,102140.13
2023-05-19T17:22:09.622Z,102133.84
2023-05-19T17:24:37.972Z,102136.59
2023-05-19T17:27:06.712Z,102134.63
2023-05-19T17:29:35.078Z,102129.13
2023-05-19T17:32:06.052Z,102132.22
2023-05-19T17:34:34.450Z,102134.56
2023-05-19T17:37:02.806Z,102132.59
2023-05-19T17:39:32.550Z,102138.88
2023-05-19T17:42:01.131Z,102138.09
2023-05-19T17:44:29.533Z,102134.91
2023-05-19T17:46:58.218Z,102142.38
2023-05-19T17:49:26.637Z,102137.66
2023-05-19T17:51:55.743Z,102138.06
2023-05-19T17:54:26.261Z,102145.09
2023-05-19T17:57:03.283Z,102145.09
2023-05-19T17:59:32.661Z,102151.38
2023-05-19T18:02:01.755Z,102144.31
2023-05-19T18:04:31.374Z,102156.06
2023-05-19T18:07:03.591Z,102148.56
2023-05-19T18:09:33.927Z,102150.53
2023-05-19T18:12:05.306Z,102146.22
2023-05-19T18:14:33.672Z,102152.09
2023-05-19T18:17:02.337Z,102142.63
2023-05-19T18:19:30.727Z,102142.25
2023-05-19T18:21:59.172Z,102144.94
2023-05-19T18:24:27.650Z,102162.97
2023-05-19T18:26:56.012Z,102154.75
2023-05-19T18:29:25.687Z,102157.88
2023-05-19T18:31:57.041Z,102152.75
2023-05-19T18:34:25.330Z,102149.59
2023-05-19T18:36:53.707Z,102159.78
2023-05-19T18:39:22.045Z,102159.75
2023-05-19T18:41:50.841Z,102157.41
2023-05-19T18:44:19.157Z,102155.41
2023-05-19T18:46:48.863Z,102159.69
2023-05-19T18:49:17.237Z,102158.16
2023-05-19T18:51:48.440Z,102167.91
2023-05-19T18:54:16.737Z,102176.91
2023-05-19T18:56:45.084Z,102165.47
2023-05-19T18:59:13.520Z,102172.16
2023-05-19T19:01:42.901Z,102168.59
2023-05-19T19:04:14.781Z,102175.66
2023-05-19T19:06:44.035Z,102184.59
2023-05-19T19:09:12.539Z,102166.50
2023-05-19T19:11:41.030Z,102183.41
2023-05-19T19:14:10.302Z,102175.16
2023-05-19T19:16:38.910Z,102175.91
2023-05-19T19:19:07.680Z,102177.03
2023-05-19T19:21:37.570Z,102177.78
2023-05-19T19:24:07.068Z,102186.38
2023-05-19T19:26:35.360Z,102185.59
2023-05-19T19:29:03.833Z,102185.16
2023-05-19T19:31:33.330Z,102187.47
2023-05-19T19:34:05.462Z,102198.78
2023-05-19T19:36:33.839Z,102191.69
2023-05-19T19:39:03.675Z,102207.72
2023-05-19T19:41:33.385Z,102202.19
2023-05-19T19:44:01.862Z,102206.09
2023-05-19T19:46:30.163Z,102210.72
2023-05-19T19:49:00.380Z,102213.00
2023-05-19T19:51:28.947Z,102213.78
2023-05-19T19:53:57.375Z,102220.75
2023-05-19T19:56:27.685Z,102213.28
2023-05-19T19:58:59.061Z,102214.78
2023-05-19T20:01:28.217Z,102217.09
2023-05-19T20:03:56.924Z,102225.28
2023-05-19T20:06:25.602Z,102231.13
2023-05-19T20:08:53.938Z,102220.38
2023-05-19T20:11:24.269Z,102223.91
2023-05-19T20:13:54.496Z,102232.88
2023-05-19T20:16:24.172Z,102232.03
2023-05-19T20:18:52.686Z,102228.09
2023-05-19T20:21:21.037Z,102230.44
2023-05-19T20:23:50.465Z,102233.50
2023-05-19T20:26:18.981Z,102224.81
2023-05-19T20:28:47.435Z,102239.28
2023-05-19T20:31:17.290Z,102238.41
2023-05-19T20:33:45.639Z,102231.69
2023-05-19T20:36:14.013Z,102237.53
2023-05-19T20:38:42.393Z,102235.88
2023-05-19T20:41:10.876Z,102231.56
2023-05-19T20:43:39.260Z,102235.75
2023-05-19T20:46:07.739Z,102238.91
2023-05-19T20:48:37.467Z,102234.16
2023-05-19T20:51:06.069Z,102251.72
2023-05-19T20:53:37.274Z,102239.94
2023-05-19T20:56:07.716Z,102234.41
2023-05-19T20:58:36.107Z,102237.88
2023-05-19T21:01:04.647Z,102234.28
2023-05-19T21:03:33.343Z,102240.44
2023-05-19T21:06:03.236Z,102236.47
2023-05-19T21:08:31.534Z,102235.25
2023-05-19T21:11:00.577Z,102240.69
2023-05-19T21:13:29.159Z,102241.00
2023-05-19T21:15:58.156Z,102244.78
2023-05-19T21:18:26.540Z,102242.44
2023-05-19T21:20:54.910Z,102247.06
2023-05-19T21:23:24.595Z,102246.19
2023-05-19T21:25:52.881Z,102250.81
2023-05-19T21:28:21.331Z,102258.59
2023-05-19T21:30:50.098Z,102248.34
2023-05-19T21:33:18.525Z,102248.97
2023-05-19T21:35:47.438Z,102256.38
2023-05-19T21:38:23.933Z,102245.81
2023-05-19T21:40:53.879Z,102247.25
2023-05-19T21:43:22.906Z,102245.66
2023-05-19T21:45:51.220Z,102254.22
2023-05-19T21:48:19.689Z,102251.41
2023-05-19T21:50:53.390Z,102254.88
2023-05-19T21:53:21.887Z,102255.56
2023-05-19T21:55:50.263Z,102248.53
2023-05-19T21:58:19.968Z,102256.31
2023-05-19T22:00:50.903Z,102259.34
2023-05-19T22:03:19.419Z,102259.75
2023-05-19T22:05:50.446Z,102261.19
2023-05-19T22:08:19.458Z,102258.47
2023-05-19T22:10:51.431Z,102256.88
2023-05-19T22:13:21.789Z,102259.09
2023-05-19T22:15:50.200Z,102257.94
2023-05-19T22:18:18.566Z,102256.28
2023-05-19T22:20:46.866Z,102257.09
2023-05-19T22:23:15.192Z,102254.22
2023-05-19T22:25:43.536Z,102259.56
2023-05-19T22:28:11.892Z,102256.44
2023-05-19T22:30:42.215Z,102265.00
2023-05-19T22:33:11.334Z,102253.97
2023-05-19T22:35:39.785Z,102253.13
2023-05-19T22:38:10.283Z,102253.13
2023-05-19T22:40:39.634Z,102248.38
2023-05-19T22:43:07.976Z,102251.44
2023-05-19T22:45:36.960Z,102242.72
2023-05-19T22:48:07.620Z,102256.03
2023-05-19T22:50:35.988Z,102253.31
2023-05-19T22:53:04.292Z,102243.13
2023-05-19T22:55:32.766Z,102241.03
2023-05-19T22:58:01.259Z,102241.84
2023-05-19T23:00:29.666Z,102246.47
2023-05-19T23:02:58.426Z,102241.69
2023-05-19T23:05:28.185Z,102242.88
2023-05-19T23:07:56.506Z,102249.03
2023-05-19T23:10:24.885Z,102247.88
2023-05-19T23:12:53.755Z,102235.66
2023-05-19T23:15:22.099Z,102248.50
2023-05-19T23:17:50.494Z,102246.94
2023-05-19T23:20:19.002Z,102254.28
2023-05-19T23:22:48.673Z,102248.00
2023-05-19T23:25:17.092Z,102256.97
2023-05-19T23:27:46.525Z,102257.69
2023-05-19T23:30:14.854Z,102259.59
2023-05-19T23:32:43.286Z,102254.44
2023-05-19T23:35:13.743Z,102250.00
2023-05-19T23:37:42.133Z,102252.75
2023-05-19T23:40:12.849Z,102245.25
2023-05-19T23:42:41.170Z,102235.44
2023-05-19T23:45:10.585Z,102241.75
2023-05-19T23:47:39.015Z,102241.56
2023-05-19T23:50:08.319Z,102235.75
2023-05-19T23:52:36.677Z,102230.59
2023-05-19T23:55:05.879Z,102233.22
2023-05-19T23:57:35.616Z,102227.78
